createdAt,value
2018-05-29T00:00:18.330Z,24.80
2018-05-29T00:01:18.368Z,25.00
2018-05-29T00:02:18.402Z,22.70
2018-05-29T00:03:18.440Z,22.40
2018-05-29T00:04:18.476Z,25.20
2018-05-29T00:05:18.513Z,24.70
2018-05-29T00:06:18.547Z,24.10
2018-05-29T00:07:18.585Z,23.80
2018-05-29T00:08:18.621Z,25.00
2018-05-29T00:09:18.658Z,22.10
2018-05-29T00:10:18.694Z,26.20
2018-05-29T00:11:18.731Z,22.90
2018-05-29T00:12:18.767Z,23.50
2018-05-29T00:13:18.803Z,21.60
2018-05-29T00:14:18.838Z,20.40
2018-05-29T00:15:18.879Z,20.10
2018-05-29T00:16:18.910Z,27.30
2018-05-29T00:17:18.948Z,25.20
2018-05-29T00:18:18.984Z,24.90
2018-05-29T00:19:19.020Z,19.40
2018-05-29T00:20:19.056Z,22.20
2018-05-29T00:21:19.092Z,19.00
2018-05-29T00:22:19.129Z,23.10
2018-05-29T00:23:19.164Z,21.00
2018-05-29T00:24:19.201Z,18.80
2018-05-29T00:25:19.238Z,18.20
2018-05-29T00:26:19.274Z,24.90
2018-05-29T00:27:19.311Z,27.30
2018-05-29T00:28:19.346Z,25.50
2018-05-29T00:29:19.383Z,19.00
2018-05-29T00:30:19.419Z,20.00
2018-05-29T00:31:19.461Z,19.60
2018-05-29T00:32:19.492Z,21.00
2018-05-29T00:33:19.531Z,22.60
2018-05-29T00:34:19.562Z,23.10
2018-05-29T00:35:19.600Z,26.90
2018-05-29T00:36:19.637Z,20.70
2018-05-29T00:37:19.672Z,20.50
2018-05-29T00:38:19.708Z,18.90
2018-05-29T00:39:19.745Z,21.30
2018-05-29T00:40:19.781Z,19.40
2018-05-29T00:41:19.818Z,23.00
2018-05-29T00:42:19.854Z,19.10
2018-05-29T00:43:19.890Z,19.20
2018-05-29T00:44:19.927Z,20.90
2018-05-29T00:45:19.963Z,24.00
2018-05-29T00:46:19.999Z,24.00
2018-05-29T00:47:20.034Z,23.50
2018-05-29T00:48:20.074Z,18.30
2018-05-29T00:49:20.108Z,17.60
2018-05-29T00:50:20.143Z,21.00
2018-05-29T00:51:20.182Z,19.20
2018-05-29T00:52:20.223Z,18.70
2018-05-29T00:53:20.255Z,18.80
2018-05-29T00:54:20.288Z,25.20
2018-05-29T00:55:20.325Z,17.30
2018-05-29T00:56:20.361Z,19.10
2018-05-29T00:57:20.397Z,17.90
2018-05-29T00:58:20.431Z,23.90
2018-05-29T00:59:20.469Z,21.70
2018-05-29T01:00:20.504Z,19.40
2018-05-29T01:01:20.542Z,20.50
2018-05-29T01:02:20.577Z,23.10
2018-05-29T01:03:20.614Z,18.80
2018-05-29T01:04:20.650Z,20.10
2018-05-29T01:05:20.689Z,22.40
2018-05-29T01:06:20.722Z,28.30
2018-05-29T01:07:20.758Z,22.80
2018-05-29T01:08:20.794Z,25.90
2018-05-29T01:09:20.831Z,18.40
2018-05-29T01:10:20.867Z,20.00
2018-05-29T01:11:20.903Z,19.20
2018-05-29T01:12:20.939Z,24.20
2018-05-29T01:13:20.977Z,20.20
2018-05-29T01:14:21.016Z,23.90
2018-05-29T01:15:21.045Z,23.20
2018-05-29T01:16:21.084Z,20.30
2018-05-29T01:17:21.120Z,22.40
2018-05-29T01:18:21.156Z,22.70
2018-05-29T01:19:21.192Z,20.70
2018-05-29T01:20:21.227Z,19.00
2018-05-29T01:21:21.265Z,21.20
2018-05-29T01:22:21.300Z,24.70
2018-05-29T01:23:21.337Z,18.40
2018-05-29T01:24:21.376Z,23.90
2018-05-29T01:25:21.411Z,20.00
2018-05-29T01:26:21.445Z,22.60
2018-05-29T01:27:21.482Z,20.40
2018-05-29T01:28:21.528Z,20.70
2018-05-29T01:29:21.554Z,18.90
2018-05-29T01:30:21.589Z,26.40
2018-05-29T01:31:21.626Z,22.10
2018-05-29T01:32:21.662Z,17.90
2018-05-29T01:33:21.698Z,21.30
2018-05-29T01:34:21.733Z,26.20
2018-05-29T01:35:21.769Z,18.30
2018-05-29T01:36:21.806Z,22.20
2018-05-29T01:37:21.843Z,19.40
2018-05-29T01:38:21.879Z,20.60
2018-05-29T01:39:21.914Z,20.30
2018-05-29T01:40:21.950Z,21.50
2018-05-29T01:41:21.987Z,18.50
2018-05-29T01:42:22.023Z,20.80
2018-05-29T01:43:22.057Z,18.00
2018-05-29T01:44:22.095Z,20.60
2018-05-29T01:45:22.135Z,21.80
2018-05-29T01:46:22.172Z,27.80
2018-05-29T01:47:22.203Z,16.10
2018-05-29T01:48:22.240Z,20.30
2018-05-29T01:49:22.276Z,24.20
2018-05-29T01:52:48.199Z,17.90
2018-05-29T01:53:48.235Z,20.50
2018-05-29T01:54:48.272Z,18.00
2018-05-29T01:55:48.308Z,18.30
2018-05-29T01:56:48.349Z,18.50
2018-05-29T01:57:48.379Z,15.30
2018-05-29T01:58:48.416Z,19.80
2018-05-29T01:59:48.450Z,17.20
2018-05-29T02:00:48.487Z,19.90
2018-05-29T02:01:48.524Z,18.90
2018-05-29T02:02:48.560Z,22.30
2018-05-29T02:03:48.594Z,24.90
2018-05-29T02:04:48.630Z,22.30
2018-05-29T02:05:48.669Z,24.60
2018-05-29T02:06:48.704Z,18.40
2018-05-29T02:07:48.739Z,18.90
2018-05-29T02:08:48.775Z,20.60
2018-05-29T02:09:48.811Z,21.40
2018-05-29T02:10:48.849Z,16.90
2018-05-29T02:11:48.883Z,20.20
2018-05-29T02:12:48.919Z,16.60
2018-05-29T02:13:48.959Z,19.00
2018-05-29T02:14:48.991Z,15.70
2018-05-29T02:15:49.027Z,19.30
2018-05-29T02:16:49.063Z,22.90
2018-05-29T02:17:49.099Z,19.60
2018-05-29T02:18:49.135Z,20.90
2018-05-29T02:19:49.174Z,14.60
2018-05-29T02:20:49.209Z,24.10
2018-05-29T02:21:49.243Z,17.40
2018-05-29T02:22:49.282Z,17.60
2018-05-29T02:23:49.315Z,18.60
2018-05-29T02:24:49.351Z,17.90
2018-05-29T02:25:49.386Z,16.00
2018-05-29T02:26:49.423Z,17.00
2018-05-29T02:27:49.458Z,15.90
2018-05-29T02:28:49.496Z,16.40
2018-05-29T02:29:49.531Z,19.70
2018-05-29T02:30:49.572Z,14.00
2018-05-29T02:31:49.602Z,14.60
2018-05-29T02:32:49.642Z,13.50
2018-05-29T02:33:49.673Z,13.40
2018-05-29T02:34:49.712Z,14.70
2018-05-29T02:35:49.745Z,18.40
2018-05-29T02:36:49.782Z,19.00
2018-05-29T02:37:49.819Z,18.10
2018-05-29T02:38:49.857Z,14.40
2018-05-29T02:39:49.889Z,14.60
2018-05-29T02:40:49.926Z,14.90
2018-05-29T02:41:49.966Z,14.30
2018-05-29T02:42:50.001Z,13.40
2018-05-29T02:43:50.032Z,16.90
2018-05-29T02:44:50.068Z,14.80
2018-05-29T02:45:50.106Z,18.00
2018-05-29T02:46:50.140Z,17.10
2018-05-29T02:47:50.178Z,17.60
2018-05-29T02:48:50.216Z,18.90
2018-05-29T02:49:50.249Z,16.10
2018-05-29T02:50:50.285Z,17.50
2018-05-29T02:51:50.320Z,16.60
2018-05-29T02:52:50.356Z,17.60
2018-05-29T02:53:50.393Z,16.50
2018-05-29T02:54:50.428Z,17.70
2018-05-29T02:55:50.468Z,15.10
2018-05-29T02:56:50.503Z,20.10
2018-05-29T02:57:50.536Z,26.30
2018-05-29T02:58:50.570Z,22.90
2018-05-29T02:59:50.606Z,17.70
2018-05-29T03:00:50.641Z,19.60
2018-05-29T03:01:50.679Z,21.30
2018-05-29T03:02:50.715Z,15.80
2018-05-29T03:03:50.750Z,13.30
2018-05-29T03:04:50.786Z,18.00
2018-05-29T03:05:50.823Z,16.00
2018-05-29T03:06:50.858Z,15.80
2018-05-29T03:07:50.894Z,17.50
2018-05-29T03:08:50.929Z,14.70
2018-05-29T03:09:50.965Z,20.30
2018-05-29T03:10:51.005Z,13.50
2018-05-29T03:11:51.036Z,22.40
2018-05-29T03:12:51.071Z,20.10
2018-05-29T03:13:51.109Z,12.40
2018-05-29T03:14:51.145Z,13.30
2018-05-29T03:15:51.179Z,12.30
2018-05-29T03:16:51.215Z,13.10
2018-05-29T03:17:51.252Z,17.70
2018-05-29T03:18:51.287Z,13.30
2018-05-29T03:19:51.323Z,13.40
2018-05-29T03:20:51.387Z,22.60
2018-05-29T03:21:51.396Z,13.50
2018-05-29T03:22:51.431Z,14.80
2018-05-29T03:23:51.467Z,15.30
2018-05-29T03:24:51.503Z,12.70
2018-05-29T03:25:51.540Z,15.50
2018-05-29T03:26:51.576Z,14.90
2018-05-29T03:27:51.610Z,13.30
2018-05-29T03:28:51.647Z,15.00
2018-05-29T03:29:51.683Z,13.00
2018-05-29T03:30:51.721Z,11.90
2018-05-29T03:31:51.754Z,13.90
2018-05-29T03:32:51.790Z,13.40
2018-05-29T03:33:51.827Z,11.70
2018-05-29T03:34:51.864Z,15.40
2018-05-29T03:35:51.898Z,13.50
2018-05-29T03:36:51.935Z,11.30
2018-05-29T03:37:51.975Z,14.00
2018-05-29T03:38:52.008Z,16.70
2018-05-29T03:39:52.048Z,11.80
2018-05-29T03:40:52.082Z,12.70
2018-05-29T03:41:52.117Z,20.10
2018-05-29T03:42:52.152Z,12.40
2018-05-29T03:43:52.186Z,20.70
2018-05-29T03:44:52.224Z,11.80
2018-05-29T03:45:52.260Z,11.70
2018-05-29T03:46:52.301Z,12.20
2018-05-29T03:47:52.332Z,13.70
2018-05-29T03:48:52.369Z,11.10
2018-05-29T03:49:52.404Z,16.60
2018-05-29T03:50:52.445Z,14.40
2018-05-29T03:51:52.477Z,13.30
2018-05-29T03:52:52.513Z,12.20
2018-05-29T03:53:52.549Z,11.90
2018-05-29T03:54:52.586Z,12.50
2018-05-29T03:55:52.622Z,12.20
2018-05-29T03:56:52.658Z,12.70
2018-05-29T03:57:52.694Z,15.00
2018-05-29T03:58:52.731Z,14.10
2018-05-29T03:59:52.766Z,14.90
2018-05-29T04:00:52.803Z,16.70
2018-05-29T04:01:52.838Z,17.90
2018-05-29T04:02:52.875Z,14.30
2018-05-29T04:03:52.911Z,13.10
2018-05-29T04:04:52.946Z,13.10
2018-05-29T04:05:52.984Z,14.90
2018-05-29T04:06:53.019Z,17.20
2018-05-29T04:07:53.055Z,14.70
2018-05-29T04:08:53.091Z,13.00
2018-05-29T04:09:53.187Z,12.00
2018-05-29T04:10:53.165Z,15.70
2018-05-29T04:11:53.199Z,13.70
2018-05-29T04:12:53.237Z,12.60
2018-05-29T04:13:53.274Z,12.20
2018-05-29T04:14:53.309Z,12.50
2018-05-29T04:15:53.347Z,15.20
2018-05-29T04:16:53.382Z,11.50
2018-05-29T04:17:53.418Z,13.80
2018-05-29T04:18:53.455Z,14.20
2018-05-29T04:19:53.492Z,12.40
2018-05-29T04:20:53.527Z,11.90
2018-05-29T04:21:53.566Z,11.90
2018-05-29T04:22:53.601Z,10.90
2018-05-29T04:23:53.636Z,11.20
2018-05-29T04:24:53.672Z,13.30
2018-05-29T04:25:53.709Z,11.80
2018-05-29T04:26:53.749Z,14.20
2018-05-29T04:27:53.783Z,13.50
2018-05-29T04:28:53.818Z,11.70
2018-05-29T04:29:53.857Z,11.30
2018-05-29T04:30:53.891Z,10.90
2018-05-29T04:31:53.928Z,12.60
2018-05-29T04:32:53.962Z,10.40
2018-05-29T04:33:54.000Z,11.00
2018-05-29T04:34:54.037Z,10.30
2018-05-29T04:35:54.071Z,15.90
2018-05-29T04:36:54.109Z,10.20
2018-05-29T04:37:54.146Z,10.90
2018-05-29T04:38:54.182Z,13.40
2018-05-29T04:39:54.222Z,9.50
2018-05-29T04:40:54.255Z,8.80
2018-05-29T04:41:54.292Z,10.00
2018-05-29T04:42:54.328Z,13.60
2018-05-29T04:43:54.363Z,11.70
2018-05-29T04:44:54.401Z,9.30
2018-05-29T04:45:54.436Z,9.70
2018-05-29T04:46:54.474Z,9.90
2018-05-29T04:47:54.510Z,13.80
2018-05-29T04:48:54.545Z,9.70
2018-05-29T04:49:54.587Z,9.20
2018-05-29T04:50:54.622Z,9.00
2018-05-29T04:51:54.654Z,11.90
2018-05-29T04:52:54.692Z,11.60
2018-05-29T04:53:54.730Z,10.40
2018-05-29T04:54:54.764Z,11.60
2018-05-29T04:55:54.801Z,15.20
2018-05-29T04:56:54.840Z,15.10
2018-05-29T04:57:54.875Z,10.40
2018-05-29T04:58:54.912Z,9.60
2018-05-29T04:59:54.951Z,13.00
2018-05-29T05:00:54.984Z,10.50
2018-05-29T05:01:55.021Z,13.70
2018-05-29T05:02:55.059Z,10.10
2018-05-29T05:03:55.093Z,12.90
2018-05-29T05:04:55.131Z,10.30
2018-05-29T05:05:55.171Z,10.30
2018-05-29T05:06:55.205Z,9.80
2018-05-29T05:07:55.241Z,10.00
2018-05-29T05:08:55.315Z,10.90
2018-05-29T05:09:55.318Z,9.80
2018-05-29T05:10:55.353Z,14.90
2018-05-29T05:11:55.394Z,12.90
2018-05-29T05:12:55.427Z,9.90
2018-05-29T05:13:55.465Z,12.80
2018-05-29T05:14:55.501Z,11.80
2018-05-29T05:15:55.537Z,9.30
2018-05-29T05:16:55.575Z,13.80
2018-05-29T05:17:55.612Z,13.70
2018-05-29T05:18:55.648Z,12.10
2018-05-29T05:19:55.685Z,9.40
2018-05-29T05:20:55.723Z,8.10
2018-05-29T05:21:55.761Z,8.40
2018-05-29T05:22:55.800Z,15.70
2018-05-29T05:23:55.841Z,13.50
2018-05-29T05:24:55.871Z,8.70
2018-05-29T05:25:55.910Z,14.90
2018-05-29T05:26:55.946Z,10.70
2018-05-29T05:27:55.983Z,8.20
2018-05-29T05:28:56.020Z,9.60
2018-05-29T05:29:56.058Z,8.20
2018-05-29T05:30:56.096Z,9.00
2018-05-29T05:31:56.133Z,9.30
2018-05-29T05:32:56.170Z,7.90
2018-05-29T05:33:56.208Z,9.40
2018-05-29T05:34:56.244Z,9.90
2018-05-29T05:35:56.281Z,8.70
2018-05-29T05:36:56.320Z,11.20
2018-05-29T05:37:56.357Z,7.50
2018-05-29T05:38:56.425Z,7.70
2018-05-29T05:39:56.431Z,8.20
2018-05-29T05:40:56.469Z,8.00
2018-05-29T05:41:56.508Z,11.10
2018-05-29T05:42:56.542Z,8.60
2018-05-29T05:43:56.580Z,10.60
2018-05-29T05:44:56.617Z,9.20
2018-05-29T05:45:56.656Z,7.10
2018-05-29T05:46:56.692Z,7.30
2018-05-29T05:47:56.732Z,6.70
2018-05-29T05:48:56.768Z,9.80
2018-05-29T05:49:56.804Z,8.20
2018-05-29T05:50:56.842Z,8.00
2018-05-29T05:51:56.882Z,8.90
2018-05-29T05:52:56.917Z,6.90
2018-05-29T05:53:56.955Z,6.20
2018-05-29T05:54:56.994Z,7.50
2018-05-29T05:55:57.029Z,8.50
2018-05-29T05:56:57.068Z,7.60
2018-05-29T05:57:57.105Z,10.60
2018-05-29T05:58:57.143Z,13.50
2018-05-29T05:59:57.181Z,18.30
2018-05-29T06:00:57.219Z,7.30
2018-05-29T06:01:57.257Z,10.50
2018-05-29T06:02:57.296Z,6.90
2018-05-29T06:03:57.333Z,9.90
2018-05-29T06:04:57.370Z,7.50
2018-05-29T06:05:57.409Z,8.30
2018-05-29T06:06:57.447Z,7.80
2018-05-29T06:07:57.484Z,9.70
2018-05-29T06:08:57.521Z,12.80
2018-05-29T06:09:57.560Z,68.10
2018-05-29T06:10:57.598Z,12.50
2018-05-29T06:11:57.640Z,5.20
2018-05-29T06:12:57.674Z,10.20
2018-05-29T06:13:57.712Z,5.40
2018-05-29T06:14:57.750Z,10.00
2018-05-29T06:15:57.789Z,7.70
2018-05-29T06:16:57.828Z,5.60
2018-05-29T06:17:57.865Z,10.40
2018-05-29T06:18:57.905Z,11.10
2018-05-29T06:19:57.942Z,5.40
2018-05-29T06:20:57.981Z,8.20
2018-05-29T06:21:58.020Z,7.60
2018-05-29T06:22:58.059Z,6.90
2018-05-29T06:23:58.099Z,7.10
2018-05-29T06:24:58.140Z,13.30
2018-05-29T06:25:58.174Z,10.20
2018-05-29T06:26:58.213Z,7.30
2018-05-29T06:27:58.250Z,12.10
2018-05-29T06:28:58.294Z,12.30
2018-05-29T06:29:58.330Z,9.40
2018-05-29T06:30:58.374Z,6.00
2018-05-29T06:31:58.405Z,5.90
2018-05-29T06:32:58.447Z,11.30
2018-05-29T06:33:58.486Z,7.40
2018-05-29T06:34:58.523Z,7.50
2018-05-29T06:35:58.563Z,6.20
2018-05-29T06:36:58.601Z,6.10
2018-05-29T06:37:58.639Z,7.90
2018-05-29T06:38:58.680Z,8.60
2018-05-29T06:39:58.717Z,8.10
2018-05-29T06:40:58.757Z,12.20
2018-05-29T06:41:58.797Z,9.10
2018-05-29T06:42:58.838Z,8.40
2018-05-29T06:43:58.877Z,6.80
2018-05-29T06:44:58.988Z,9.00
2018-05-29T06:45:58.961Z,6.00
2018-05-29T06:46:58.996Z,4.30
2018-05-29T06:47:59.033Z,9.30
2018-05-29T06:48:59.078Z,6.80
2018-05-29T06:49:59.114Z,4.60
2018-05-29T06:50:59.156Z,4.30
2018-05-29T06:51:59.193Z,6.20
2018-05-29T06:52:59.237Z,5.70
2018-05-29T06:53:59.274Z,7.80
2018-05-29T06:54:59.315Z,8.70
2018-05-29T06:55:59.353Z,7.90
2018-05-29T06:56:59.395Z,6.20
2018-05-29T06:57:59.435Z,6.70
2018-05-29T06:58:59.476Z,4.10
2018-05-29T06:59:59.516Z,9.20
2018-05-29T07:00:59.555Z,6.90
2018-05-29T07:01:59.596Z,4.60
2018-05-29T07:02:59.637Z,6.00
2018-05-29T07:03:59.705Z,3.30
2018-05-29T07:04:59.717Z,3.80
2018-05-29T07:05:59.759Z,8.70
2018-05-29T07:06:59.826Z,8.20
2018-05-29T07:07:59.842Z,7.50
2018-05-29T07:08:59.880Z,3.70
2018-05-29T07:09:59.921Z,3.90
2018-05-29T07:10:59.961Z,5.30
2018-05-29T07:12:00.004Z,5.60
2018-05-29T07:13:00.042Z,5.00
2018-05-29T07:14:00.081Z,9.70
2018-05-29T07:15:00.123Z,6.20
2018-05-29T07:16:00.163Z,9.90
2018-05-29T07:17:00.203Z,6.50
2018-05-29T07:18:00.243Z,5.90
2018-05-29T07:19:00.283Z,7.50
2018-05-29T07:20:00.324Z,6.80
2018-05-29T07:21:00.364Z,3.10
2018-05-29T07:22:00.404Z,5.90
2018-05-29T07:23:00.446Z,4.30
2018-05-29T07:24:00.489Z,4.40
2018-05-29T07:25:00.561Z,9.50
2018-05-29T07:26:00.566Z,7.60
2018-05-29T07:27:00.608Z,3.40
2018-05-29T07:28:00.646Z,4.60
2018-05-29T07:29:00.687Z,4.00
2018-05-29T07:30:00.728Z,4.90
2018-05-29T07:31:00.769Z,3.90
2018-05-29T07:32:00.808Z,3.10
2018-05-29T07:33:00.847Z,3.70
2018-05-29T07:34:00.889Z,8.20
2018-05-29T07:35:00.930Z,6.00
2018-05-29T07:36:00.968Z,5.90
2018-05-29T07:37:01.011Z,3.90
2018-05-29T07:38:01.051Z,4.60
2018-05-29T07:39:01.091Z,2.40
2018-05-29T07:40:01.132Z,3.40
2018-05-29T07:41:01.173Z,8.60
2018-05-29T07:42:01.216Z,5.90
2018-05-29T07:43:01.255Z,5.40
2018-05-29T07:44:01.295Z,5.60
2018-05-29T07:45:01.335Z,6.80
2018-05-29T07:46:01.377Z,4.70
2018-05-29T07:47:01.420Z,3.90
2018-05-29T07:48:01.484Z,4.70
2018-05-29T07:49:01.498Z,9.00
2018-05-29T07:50:01.541Z,3.10
2018-05-29T07:51:01.582Z,7.70
2018-05-29T07:52:01.678Z,2.70
2018-05-29T07:53:01.666Z,7.20
2018-05-29T07:54:01.703Z,2.90
2018-05-29T07:55:01.744Z,5.20
2018-05-29T07:56:01.784Z,3.90
2018-05-29T07:57:01.826Z,4.60
2018-05-29T07:58:01.867Z,3.30
2018-05-29T07:59:01.907Z,7.40
2018-05-29T08:00:01.949Z,6.40
2018-05-29T08:01:01.995Z,6.20
2018-05-29T08:02:02.031Z,4.00
2018-05-29T08:03:02.073Z,6.10
2018-05-29T08:04:02.112Z,4.80
2018-05-29T08:05:02.154Z,2.80
2018-05-29T08:06:02.195Z,4.50
2018-05-29T08:07:02.236Z,5.80
2018-05-29T08:08:02.276Z,4.70
2018-05-29T08:09:02.316Z,3.50
2018-05-29T08:10:02.357Z,4.00
2018-05-29T08:11:02.624Z,5.90
2018-05-29T08:12:02.460Z,2.10
2018-05-29T08:13:02.481Z,6.60
2018-05-29T08:14:02.541Z,8.90
2018-05-29T08:15:02.889Z,6.80
2018-05-29T08:16:02.623Z,4.30
2018-05-29T08:17:03.174Z,7.20
2018-05-29T08:18:02.705Z,3.60
2018-05-29T08:19:03.154Z,4.60
2018-05-29T08:20:02.770Z,8.70
2018-05-29T08:21:02.812Z,2.70
2018-05-29T08:22:02.853Z,5.70
2018-05-29T08:23:02.918Z,4.60
2018-05-29T08:24:02.954Z,6.60
2018-05-29T08:25:03.404Z,7.30
2018-05-29T08:26:03.030Z,5.50
2018-05-29T08:28:03.323Z,3.80
2018-05-29T08:34:03.772Z,5.80
2018-05-29T08:35:03.409Z,4.10
2018-05-29T08:36:04.161Z,3.10
2018-05-29T08:37:03.694Z,4.70
2018-05-29T08:38:04.445Z,4.00
2018-05-29T08:41:04.061Z,6.10
2018-05-29T08:42:03.974Z,5.50
2018-05-29T08:43:04.247Z,9.70
2018-05-29T08:44:03.760Z,5.00
2018-05-29T08:45:03.824Z,2.50
2018-05-29T08:46:04.060Z,5.80
2018-05-29T08:47:03.906Z,5.10
2018-05-29T08:48:03.944Z,3.00
2018-05-29T08:49:03.984Z,8.20
2018-05-29T08:50:04.014Z,7.30
2018-05-29T08:51:04.279Z,7.70
2018-05-29T08:52:04.091Z,5.50
2018-05-29T08:53:04.165Z,4.60
2018-05-29T08:54:04.175Z,8.70
2018-05-29T08:55:04.216Z,6.10
2018-05-29T08:56:04.256Z,5.60
2018-05-29T08:57:04.299Z,3.30
2018-05-29T08:58:04.340Z,3.20
2018-05-29T08:59:04.385Z,5.70
2018-05-29T09:00:04.424Z,4.40
2018-05-29T09:01:04.465Z,6.50
2018-05-29T09:02:04.508Z,4.80
2018-05-29T09:03:04.550Z,5.70
2018-05-29T09:04:04.678Z,6.50
2018-05-29T09:05:04.638Z,6.10
2018-05-29T09:06:04.676Z,4.40
2018-05-29T09:07:04.719Z,7.60
2018-05-29T09:08:04.759Z,4.20
2018-05-29T09:09:04.802Z,8.60
2018-05-29T09:10:04.845Z,3.80
2018-05-29T09:11:04.888Z,8.20
2018-05-29T09:12:04.932Z,6.30
2018-05-29T09:13:04.971Z,6.10
2018-05-29T09:14:05.015Z,9.20
2018-05-29T09:15:05.057Z,5.70
2018-05-29T09:16:05.098Z,5.70
2018-05-29T09:17:05.142Z,6.10
2018-05-29T09:18:05.184Z,5.30
2018-05-29T09:19:05.233Z,4.20
2018-05-29T09:20:05.350Z,7.80
2018-05-29T09:21:05.308Z,4.60
2018-05-29T09:22:05.351Z,5.90
2018-05-29T09:23:05.392Z,5.10
2018-05-29T09:24:05.433Z,3.90
2018-05-29T09:25:05.476Z,6.40
2018-05-29T09:26:05.576Z,4.00
2018-05-29T09:27:05.560Z,5.60
2018-05-29T09:28:05.601Z,6.50
2018-05-29T09:29:05.642Z,3.60
2018-05-29T09:30:05.685Z,5.60
2018-05-29T09:31:05.728Z,6.70
2018-05-29T09:32:05.768Z,6.20
2018-05-29T09:33:05.810Z,3.80
2018-05-29T09:34:05.852Z,5.80
2018-05-29T09:35:05.894Z,9.80
2018-05-29T09:36:05.936Z,6.20
2018-05-29T09:37:05.977Z,6.80
2018-05-29T09:38:06.020Z,6.40
2018-05-29T09:39:06.066Z,5.20
2018-05-29T09:40:06.102Z,9.90
2018-05-29T09:41:06.148Z,3.90
2018-05-29T09:42:06.185Z,5.80
2018-05-29T09:43:06.227Z,8.70
2018-05-29T09:44:06.271Z,5.80
2018-05-29T09:45:06.311Z,5.20
2018-05-29T09:46:06.355Z,7.90
2018-05-29T09:47:06.395Z,6.70
2018-05-29T09:48:06.435Z,6.80
2018-05-29T09:49:06.476Z,3.50
2018-05-29T09:50:06.624Z,9.10
2018-05-29T09:51:06.560Z,4.10
2018-05-29T09:52:06.666Z,5.10
2018-05-29T09:53:06.643Z,7.00
2018-05-29T09:54:06.684Z,4.50
2018-05-29T09:55:06.729Z,3.70
2018-05-29T09:56:06.767Z,4.10
2018-05-29T09:57:06.808Z,4.60
2018-05-29T09:58:06.850Z,7.00
2018-05-29T09:59:06.898Z,7.00
2018-05-29T10:00:06.936Z,5.50
2018-05-29T10:01:07.056Z,3.70
2018-05-29T10:02:07.017Z,4.50
2018-05-29T10:03:07.059Z,6.00
2018-05-29T10:04:07.105Z,7.60
2018-05-29T10:05:07.143Z,7.80
2018-05-29T10:06:07.184Z,4.40
2018-05-29T10:07:07.326Z,3.80
2018-05-29T10:08:07.266Z,6.30
2018-05-29T10:09:07.309Z,8.40
2018-05-29T10:10:07.351Z,7.00
2018-05-29T10:11:07.394Z,10.70
2018-05-29T10:12:07.464Z,4.50
2018-05-29T10:13:07.501Z,6.60
2018-05-29T10:14:07.517Z,9.00
2018-05-29T10:15:07.560Z,5.00
2018-05-29T10:16:07.601Z,4.80
2018-05-29T10:17:07.656Z,4.80
2018-05-29T10:18:07.687Z,11.20
2018-05-29T10:19:07.729Z,5.80
2018-05-29T10:20:07.809Z,4.80
2018-05-29T10:21:07.813Z,6.50
2018-05-29T10:22:07.856Z,5.70
2018-05-29T10:23:07.898Z,6.20
2018-05-29T10:24:07.940Z,8.70
2018-05-29T10:25:08.066Z,6.40
2018-05-29T10:26:08.025Z,5.30
2018-05-29T10:27:08.069Z,4.40
2018-05-29T10:28:08.112Z,8.40
2018-05-29T10:29:08.153Z,5.40
2018-05-29T10:30:08.199Z,3.80
2018-05-29T10:31:08.238Z,5.50
2018-05-29T10:32:08.282Z,5.20
2018-05-29T10:33:08.337Z,4.00
2018-05-29T10:34:08.368Z,7.40
2018-05-29T10:35:08.410Z,3.90
2018-05-29T10:36:08.453Z,3.40
2018-05-29T10:37:08.497Z,4.10
2018-05-29T10:38:08.540Z,5.40
2018-05-29T10:39:08.585Z,7.80
2018-05-29T10:40:08.627Z,6.30
2018-05-29T10:41:08.671Z,3.90
2018-05-29T10:42:08.719Z,4.40
2018-05-29T10:43:08.759Z,5.00
2018-05-29T10:44:08.802Z,4.90
2018-05-29T10:45:08.848Z,4.10
2018-05-29T10:46:08.934Z,4.50
2018-05-29T10:47:08.936Z,5.60
2018-05-29T10:48:08.983Z,4.10
2018-05-29T10:49:09.024Z,5.10
2018-05-29T10:50:09.069Z,6.60
2018-05-29T10:51:09.116Z,4.80
2018-05-29T10:52:09.158Z,5.80
2018-05-29T10:53:09.203Z,4.20
2018-05-29T10:54:09.248Z,3.70
2018-05-29T10:55:09.299Z,5.60
2018-05-29T10:56:09.339Z,3.40
2018-05-29T10:57:09.383Z,4.60
2018-05-29T10:58:09.432Z,3.40
2018-05-29T10:59:09.531Z,5.50
2018-05-29T11:00:09.525Z,3.90
2018-05-29T11:01:09.571Z,4.50
2018-05-29T11:02:09.614Z,5.00
2018-05-29T11:03:09.660Z,3.50
2018-05-29T11:04:09.707Z,5.20
2018-05-29T11:05:09.753Z,6.20
2018-05-29T11:06:09.800Z,4.00
2018-05-29T11:07:09.846Z,4.10
2018-05-29T11:08:09.892Z,4.90
2018-05-29T11:09:09.939Z,5.50
2018-05-29T11:10:09.989Z,5.30
2018-05-29T11:11:10.032Z,6.80
2018-05-29T11:12:10.079Z,6.90
2018-05-29T11:13:10.126Z,7.90
2018-05-29T11:14:10.194Z,4.20
2018-05-29T11:15:10.216Z,5.30
2018-05-29T11:16:10.263Z,3.30
2018-05-29T11:17:10.309Z,5.50
2018-05-29T11:18:10.355Z,5.80
2018-05-29T11:19:10.401Z,4.60
2018-05-29T11:20:10.466Z,4.80
2018-05-29T11:21:10.491Z,3.70
2018-05-29T11:22:10.536Z,4.40
2018-05-29T11:23:10.584Z,4.50
2018-05-29T11:24:10.625Z,3.50
2018-05-29T11:25:10.671Z,4.30
2018-05-29T11:26:10.715Z,9.40
2018-05-29T11:27:10.761Z,4.80
2018-05-29T11:28:10.805Z,2.90
2018-05-29T11:29:10.849Z,5.70
2018-05-29T11:30:10.893Z,7.00
2018-05-29T11:31:10.944Z,6.20
2018-05-29T11:32:10.980Z,3.30
2018-05-29T11:33:11.024Z,3.20
2018-05-29T11:34:11.073Z,4.60
2018-05-29T11:35:11.112Z,4.60
2018-05-29T11:36:11.155Z,3.10
2018-05-29T11:37:11.200Z,3.40
2018-05-29T11:38:11.243Z,9.00
2018-05-29T11:39:11.291Z,3.00
2018-05-29T11:40:11.329Z,2.80
2018-05-29T11:41:11.375Z,4.10
2018-05-29T11:42:11.420Z,5.40
2018-05-29T11:43:11.463Z,3.50
2018-05-29T11:44:11.506Z,4.00
2018-05-29T11:45:11.551Z,4.10
2018-05-29T11:46:11.601Z,5.20
2018-05-29T11:47:11.643Z,4.90
2018-05-29T11:48:11.686Z,3.20
2018-05-29T11:49:11.732Z,3.00
2018-05-29T11:50:11.777Z,3.20
2018-05-29T11:51:11.822Z,4.10
2018-05-29T11:52:11.869Z,3.80
2018-05-29T11:53:11.916Z,5.70
2018-05-29T11:54:11.961Z,3.30
2018-05-29T11:55:12.008Z,2.70
2018-05-29T11:56:12.051Z,3.00
2018-05-29T11:57:12.099Z,4.70
2018-05-29T11:58:12.146Z,3.60
2018-05-29T11:59:12.192Z,3.40
2018-05-29T12:00:12.238Z,4.00
2018-05-29T12:01:12.285Z,3.50
2018-05-29T12:02:12.330Z,3.80
2018-05-29T12:03:12.380Z,4.40
2018-05-29T12:04:12.425Z,8.30
2018-05-29T12:05:12.470Z,4.40
2018-05-29T12:06:12.517Z,4.50
2018-05-29T12:07:12.562Z,2.90
2018-05-29T12:08:12.608Z,5.50
2018-05-29T12:09:12.656Z,4.20
2018-05-29T12:10:12.702Z,5.20
2018-05-29T12:11:12.753Z,4.00
2018-05-29T12:12:12.793Z,7.20
2018-05-29T12:13:12.840Z,6.70
2018-05-29T12:14:12.885Z,3.50
2018-05-29T12:15:12.932Z,2.10
2018-05-29T12:16:12.979Z,2.90
2018-05-29T12:17:13.028Z,5.00
2018-05-29T12:18:13.069Z,5.10
2018-05-29T12:19:13.115Z,3.10
2018-05-29T12:20:13.160Z,3.80
2018-05-29T12:21:13.206Z,5.80
2018-05-29T12:22:13.257Z,3.50
2018-05-29T12:23:13.297Z,6.10
2018-05-29T12:24:13.344Z,4.20
2018-05-29T12:25:13.395Z,3.50
2018-05-29T12:26:13.436Z,6.10
2018-05-29T12:27:13.482Z,4.20
2018-05-29T12:28:13.558Z,5.00
2018-05-29T12:29:13.630Z,3.00
2018-05-29T12:30:13.622Z,3.60
2018-05-29T12:31:13.670Z,3.20
2018-05-29T12:32:13.716Z,4.20
2018-05-29T12:33:13.767Z,7.50
2018-05-29T12:34:13.832Z,3.70
2018-05-29T12:35:13.862Z,5.30
2018-05-29T12:36:13.911Z,3.10
2018-05-29T12:37:13.959Z,2.80
2018-05-29T12:38:14.008Z,6.20
2018-05-29T12:39:14.058Z,7.20
2018-05-29T12:40:14.106Z,3.90
2018-05-29T12:41:14.155Z,7.10
2018-05-29T12:42:14.205Z,3.50
2018-05-29T12:43:14.254Z,4.30
2018-05-29T12:44:14.302Z,3.80
2018-05-29T12:45:14.353Z,4.00
2018-05-29T12:46:14.408Z,4.10
2018-05-29T12:47:14.453Z,2.70
2018-05-29T12:48:14.503Z,3.60
2018-05-29T12:49:14.552Z,3.60
2018-05-29T12:50:14.602Z,4.40
2018-05-29T12:51:14.651Z,4.50
2018-05-29T12:52:14.701Z,3.70
2018-05-29T12:53:14.764Z,8.60
2018-05-29T12:54:14.798Z,4.90
2018-05-29T12:55:14.848Z,4.00
2018-05-29T12:56:14.895Z,5.40
2018-05-29T12:57:14.945Z,8.10
2018-05-29T12:58:14.993Z,4.50
2018-05-29T12:59:15.041Z,4.40
2018-05-29T13:00:15.088Z,5.00
2018-05-29T13:01:15.138Z,5.80
2018-05-29T13:02:15.184Z,3.60
2018-05-29T13:03:15.233Z,7.10
2018-05-29T13:04:15.279Z,3.60
2018-05-29T13:05:15.329Z,4.90
2018-05-29T13:06:15.377Z,4.30
2018-05-29T13:07:15.426Z,5.50
2018-05-29T13:08:15.476Z,5.30
2018-05-29T13:09:15.524Z,4.30
2018-05-29T13:10:15.572Z,6.10
2018-05-29T13:11:15.627Z,7.90
2018-05-29T13:12:15.670Z,3.40
2018-05-29T13:13:15.720Z,4.80
2018-05-29T13:14:15.768Z,3.00
2018-05-29T13:15:15.819Z,3.70
2018-05-29T13:16:15.867Z,4.30
2018-05-29T13:17:15.919Z,6.20
2018-05-29T13:18:15.968Z,6.20